createdAt,value
2019-03-25T00:05:53.637Z,8.58
2019-03-25T00:11:53.622Z,8.41
2019-03-25T00:17:53.612Z,8.22
2019-03-25T00:23:53.641Z,7.94
2019-03-25T00:29:53.701Z,7.87
2019-03-25T00:35:53.620Z,7.73
2019-03-25T00:41:53.654Z,7.68
2019-03-25T00:47:53.691Z,7.76
2019-03-25T00:53:53.711Z,7.83
2019-03-25T00:59:53.643Z,7.64
2019-03-25T01:05:53.640Z,7.53
2019-03-25T01:11:53.696Z,7.60
2019-03-25T01:17:53.663Z,7.66
2019-03-25T01:23:53.688Z,7.64
2019-03-25T01:29:53.720Z,7.64
2019-03-25T01:35:53.779Z,7.59
2019-03-25T01:41:53.726Z,7.53
2019-03-25T01:47:53.752Z,7.51
2019-03-25T01:53:53.831Z,7.33
2019-03-25T01:59:53.745Z,7.07
2019-03-25T02:05:53.892Z,6.92
2019-03-25T02:11:53.755Z,6.83
2019-03-25T02:17:53.864Z,6.67
2019-03-25T02:23:53.772Z,6.41
2019-03-25T02:29:53.813Z,6.27
2019-03-25T02:35:53.880Z,6.13
2019-03-25T02:41:53.823Z,5.95
2019-03-25T02:47:53.873Z,5.70
2019-03-25T02:53:53.772Z,5.44
2019-03-25T02:59:53.784Z,5.20
2019-03-25T03:05:53.770Z,5.03
2019-03-25T03:11:53.838Z,4.88
2019-03-25T03:17:53.801Z,4.91
2019-03-25T03:23:53.889Z,4.84
2019-03-25T03:29:53.844Z,4.67
2019-03-25T03:35:53.804Z,4.58
2019-03-25T03:41:53.812Z,4.46
2019-03-25T03:47:53.822Z,4.33
2019-03-25T03:53:53.910Z,4.34
2019-03-25T03:59:53.774Z,4.12
2019-03-25T04:05:53.730Z,3.98
2019-03-25T04:11:53.791Z,3.91
2019-03-25T04:17:53.725Z,3.94
2019-03-25T04:23:53.762Z,3.66
2019-03-25T04:29:53.789Z,3.43
2019-03-25T04:35:53.765Z,3.53
2019-03-25T04:41:53.857Z,3.63
2019-03-25T04:47:53.788Z,3.67
2019-03-25T04:53:53.756Z,3.58
2019-03-25T04:59:53.750Z,3.64
2019-03-25T05:05:53.772Z,4.07
2019-03-25T05:11:53.771Z,4.22
2019-03-25T05:17:53.797Z,4.24
2019-03-25T05:23:53.840Z,4.23
2019-03-25T05:29:53.754Z,3.94
2019-03-25T05:35:53.779Z,3.65
2019-03-25T05:41:53.787Z,3.73
2019-03-25T05:47:53.802Z,3.79
2019-03-25T05:53:53.756Z,3.87
2019-03-25T06:01:44.333Z,4.00
2019-03-25T06:07:43.686Z,4.19
2019-03-25T06:13:43.711Z,4.67
2019-03-25T06:19:43.694Z,5.08
2019-03-25T06:25:43.681Z,5.37
2019-03-25T06:31:43.830Z,5.51
2019-03-25T06:48:35.969Z,6.05
2019-03-25T06:54:35.964Z,6.56
2019-03-25T07:00:35.987Z,6.93
2019-03-25T07:06:35.962Z,6.89
2019-03-25T07:12:36.029Z,6.81
2019-03-25T07:18:36.009Z,6.79
2019-03-25T07:24:36.010Z,6.74
2019-03-25T07:30:36.047Z,6.72
2019-03-25T07:36:36.027Z,6.98
2019-03-25T07:42:36.085Z,7.21
2019-03-25T07:48:36.024Z,7.14
2019-03-25T07:54:36.394Z,7.27
2019-03-25T08:00:36.081Z,7.22
2019-03-25T08:06:36.092Z,7.11
2019-03-25T08:41:54.891Z,7.94
2019-03-25T08:51:56.525Z,8.31
2019-03-25T08:57:56.563Z,8.79
2019-03-25T09:03:56.551Z,8.50
2019-03-25T09:09:56.554Z,8.52
2019-03-25T09:15:56.558Z,8.93
2019-03-25T09:21:56.587Z,8.78
2019-03-25T09:27:56.586Z,8.49
2019-03-25T09:33:56.658Z,9.54
2019-03-25T09:39:57.700Z,10.29
2019-03-25T09:45:56.659Z,11.03
2019-03-25T09:51:56.616Z,12.07
2019-03-25T09:57:56.594Z,10.40
2019-03-25T10:03:56.577Z,9.31
2019-03-25T10:09:56.646Z,10.98
2019-03-25T10:15:56.587Z,10.58
2019-03-25T10:22:19.730Z,9.75
2019-03-25T10:28:19.693Z,9.19
2019-03-25T10:34:19.664Z,9.45
2019-03-25T10:40:19.661Z,9.48
2019-03-25T10:46:19.708Z,9.32
2019-03-25T10:52:19.877Z,10.50
2019-03-25T10:58:19.694Z,11.83
2019-03-25T11:04:19.800Z,11.95
2019-03-25T11:10:19.697Z,12.64
2019-03-25T11:16:19.978Z,12.15
2019-03-25T11:22:19.679Z,11.97
2019-03-25T11:28:20.040Z,12.83
2019-03-25T11:34:19.682Z,14.19
2019-03-25T11:40:19.808Z,13.22
2019-03-25T11:46:19.822Z,11.20
2019-03-25T11:52:19.711Z,10.34
2019-03-25T11:58:19.774Z,11.06
2019-03-25T12:04:19.705Z,10.69
2019-03-25T12:10:19.839Z,11.95
2019-03-25T12:16:19.793Z,13.47
2019-03-25T12:22:19.781Z,13.35
2019-03-25T12:28:20.830Z,12.37
2019-03-25T12:34:19.834Z,12.16
2019-03-25T12:40:19.720Z,11.52
2019-03-25T12:46:19.764Z,11.15
2019-03-25T12:52:19.774Z,10.98
2019-03-25T12:58:19.770Z,11.39
2019-03-25T13:04:19.779Z,11.67
2019-03-25T13:10:19.797Z,11.45
2019-03-25T13:16:19.790Z,11.07
2019-03-25T13:22:19.821Z,10.76
2019-03-25T13:28:19.827Z,10.33
2019-03-25T13:34:19.800Z,8.02
2019-03-25T13:40:19.812Z,6.95
2019-03-25T13:46:19.784Z,7.44
2019-03-25T13:52:19.784Z,8.60
2019-03-25T13:58:19.826Z,8.87
2019-03-25T14:04:19.796Z,9.03
2019-03-25T14:10:19.825Z,9.01
2019-03-25T14:16:19.832Z,8.67
2019-03-25T14:22:19.849Z,8.88
2019-03-25T14:28:19.951Z,9.21
2019-03-25T14:34:19.939Z,9.53
2019-03-25T14:40:19.819Z,9.76
2019-03-25T14:46:19.865Z,9.94
2019-03-25T14:52:19.999Z,10.05
2019-03-25T14:58:19.831Z,9.89
2019-03-25T15:04:19.838Z,9.06
2019-03-25T15:10:19.828Z,7.95
2019-03-25T15:16:19.844Z,7.62
2019-03-25T15:22:19.831Z,7.63
2019-03-25T15:28:19.849Z,7.63
2019-03-25T15:34:19.894Z,7.86
2019-03-25T15:40:19.924Z,8.08
2019-03-25T15:46:19.844Z,8.39
2019-03-25T15:52:19.890Z,8.48
2019-03-25T15:58:25.885Z,8.70
2019-03-25T16:04:19.849Z,8.38
2019-03-25T16:10:19.870Z,8.20
2019-03-25T16:16:19.974Z,8.19
2019-03-25T16:22:19.964Z,8.06
2019-03-25T16:28:19.896Z,7.93
2019-03-25T16:34:19.848Z,7.90
2019-03-25T16:40:19.920Z,7.98
2019-03-25T16:46:19.932Z,7.95
2019-03-25T16:52:20.941Z,7.89
2019-03-25T16:58:19.883Z,7.80
2019-03-25T17:04:20.252Z,7.79
2019-03-25T17:10:19.965Z,7.76
2019-03-25T17:16:19.918Z,7.60
2019-03-25T17:22:19.890Z,7.55
2019-03-25T17:28:19.977Z,7.75
2019-03-25T17:34:19.973Z,7.82
2019-03-25T17:40:19.910Z,7.86
2019-03-25T17:46:19.937Z,7.71
2019-03-25T17:52:19.925Z,7.64
2019-03-25T17:58:19.895Z,7.54
2019-03-25T18:04:19.921Z,7.58
2019-03-25T18:10:19.946Z,7.59
2019-03-25T18:16:22.046Z,7.57
2019-03-25T18:22:20.012Z,7.44
2019-03-25T18:28:19.929Z,7.31
2019-03-25T18:34:19.975Z,7.14
2019-03-25T18:40:20.118Z,6.35
2019-03-25T18:46:19.931Z,5.79
2019-03-25T18:52:19.988Z,5.29
2019-03-25T18:58:19.953Z,4.97
2019-03-25T19:04:20.041Z,4.88
2019-03-25T19:10:19.957Z,4.79
2019-03-25T19:16:19.987Z,4.63
2019-03-25T19:22:19.966Z,4.48
2019-03-25T19:28:20.020Z,4.38
2019-03-25T19:34:20.029Z,4.44
2019-03-25T19:40:20.085Z,4.49
2019-03-25T19:46:20.006Z,4.49
2019-03-25T19:52:20.072Z,4.49
2019-03-25T19:58:19.982Z,4.54
2019-03-25T20:04:19.967Z,4.60
2019-03-25T20:10:20.031Z,4.63
2019-03-25T20:16:20.057Z,4.53
2019-03-25T20:22:20.046Z,4.38
2019-03-25T20:28:20.059Z,4.10
2019-03-25T20:34:23.137Z,3.94
2019-03-25T20:40:20.377Z,3.82
2019-03-25T20:46:20.069Z,3.90
2019-03-25T20:52:20.044Z,4.03
2019-03-25T20:58:20.363Z,4.07
2019-03-25T21:04:20.024Z,4.13
2019-03-25T21:10:20.072Z,4.09
2019-03-25T21:16:20.038Z,3.87
2019-03-25T21:22:20.010Z,3.65
2019-03-25T21:28:20.006Z,3.44
2019-03-25T21:34:20.043Z,3.44
2019-03-25T21:40:20.055Z,3.49
2019-03-25T21:46:20.081Z,3.32
2019-03-25T21:52:20.088Z,3.16
2019-03-25T21:58:22.131Z,3.10
2019-03-25T22:04:20.009Z,3.05
2019-03-25T22:10:20.029Z,3.06
2019-03-25T22:16:20.049Z,3.06
2019-03-25T22:22:21.127Z,3.07
2019-03-25T22:28:20.031Z,3.18
2019-03-25T22:34:20.393Z,3.40
2019-03-25T22:40:20.037Z,3.41
2019-03-25T22:46:20.421Z,3.24
2019-03-25T22:52:20.048Z,3.02
2019-03-25T22:58:20.040Z,2.79
2019-03-25T23:04:20.077Z,2.70
2019-03-25T23:10:20.091Z,2.60
2019-03-25T23:16:20.208Z,2.72
2019-03-25T23:22:20.115Z,2.72
2019-03-25T23:28:20.090Z,2.67
2019-03-25T23:34:20.037Z,2.55
2019-03-25T23:40:20.092Z,2.38
2019-03-25T23:46:20.124Z,2.20
2019-03-25T23:52:20.074Z,2.37
2019-03-25T23:58:20.066Z,2.30
